ΕΜΥ, Εθνική Μετεωρολογική Υπηρεσία - Δελτία Καιρού, Προγνώσεις

ΑΕΡΟΝΑΥΤΙΛΙΑ

GREEK AIRPORTS CODES

TAF LGKR 271100Z 2712/2812 35013KT 9999 SCT018 BKN030 PROB30 TEMPO 2712/2718 7000 RA SCT015 BKN025 PROB30 TEMPO 2712/2714 5000 TSRA FEW018CB BKN020 BECMG 2810/2812 14008KT=

EUROPEAN AIRPORTS CODES